Relevés horaires Chievres (Belgique)


Relevés horaires à Chievres - Mercredi 04 Mai 2016
Heure UTC1 Température [°C] Vent [km/h] Hum. [%] Pres.4 [hPa] Visi. [Km] Nébu. [octa] Préc.5 [mm] Cond.
2m. Res. Ros. Dir.2 Vit. Moy. Raf.3
23:00 8.0 8.0 1.7 E 3.7 5.6 7.4 64 1025.9(-0.3/3h) 20 -- -- --
22:00 8.7 8.7 2.2 E 3.7 3.7 5.6 64 1026(0.0/3h) 20 -- -- --
21:00 9.8 9.8 2.4 E 3.7 0.0 0.0 60 1026.2(0.0/3h) 20 -- -- --
20:00 10.6 10.3 2.7 E 5.6 5.6 7.4 58 1026.2(-0.3/3h) 20 -- -- --
19:00 12.3 12.2 3.1 E 5.6 7.4 9.3 53 1026(-0.7/3h) 20 -- -- --
18:00 14.6 14.6 2.4 E 5.6 0.0 0.0 44 1026(-1.1/3h) 20 -- 0/0h
--
17:00 15.6 15.6 1.9 E 7.4 7.4 11.1 40 1026.5(-1.3/3h) 20 -- -- --
16:00 16.1 16.1 0.3 E 5.6 7.4 11.1 34 1026.7(-1.4/3h) 20 -- -- --
15:00 16.1 16.1 0.6 E 7.4 0.0 0.0 35 1027.2(-1.3/3h) 20 -- -- --
14:00 15.7 15.7 0.3 E 7.4 7.4 13.0 35 1027.7(-1.2/3h) 20 -- -- --
13:00 15.2 15.2 -0.1 ENE 5.6 7.4 13.0 35 1028.2(-1.0/3h) 20 -- -- --
12:00 15.5 15.5 0.5 E 5.6 0.0 0.0 36 1028.5(-0.9/3h) 20 -- 0/0h
--
11:00 14.5 14.5 1.0 E 3.7 5.6 9.3 40 1029(-0.3/3h) 20 -- -- --
10:00 14.4 14.4 2.6 ESE 5.6 5.6 9.3 45 1029.4(-0.2/3h) 20 -- -- --
09:00 13.1 13.1 3.1 ESE 5.6 0.0 0.0 51 1029.7(0.1/3h) 20 -- -- --
08:00 11.1 11.1 4.2 ESE 3.7 3.7 5.6 62 1029.5(0.2/3h) 20 -- -- --
07:00 9.1 9.1 3.5 NNO 1.9 0.0 1.9 68 1029.7(0.5/3h) 20 -- -- --
06:00 6.1 6.1 3.4 NNO 1.9 0.0 0.0 83 1029.7(0.3/3h) 19 -- 0/0h
--
05:00 2.2 2.2 1.3 NNO 1.9 3.7 3.7 94 1029.7(0.0/3h) 17 -- -- --
04:00 1.7 1.7 0.9 NNO 1.9 1.9 3.7 94 1029.5(-0.1/3h) 20 -- -- --
03:00 2.2 2.2 1.1 NNO 1.9 0.0 0.0 92 1029.5(0.0/3h) 20 -- -- --
02:00 2.5 2.5 1.3 NNO 1.9 1.9 1.9 92 1029.7(0.2/3h) 19 -- -- --
01:00 3.5 3.5 1.9 NNO 1.9 1.9 1.9 89 1029.5(0.3/3h) 20 -- -- --
00:00 4.0 4.0 2.4 NNO 1.9 0.0 0.0 89 1029.5(0.5/3h) 20 -- 0/0h
--

1 Coordinated Universal Time. Actuellement il est 13:00 locale et 11:00 UTC.

2 Le vent souffle depuis la direction indiquée vers la direction oposée.

3 Les rafales max. sont disponible 40 min après l'heure du relevé.

4 Pour les stations d'altitude (plus de 600m) le géopotentiel du niveau le plus proche de la pression obligatoire est indiqué.

5 Les stations disposant d'un diffuseur peuvent indiquer "trace". Cela signifie que des précipitations ont touchés le sol mais que la quantité est inférieure à 0.1 mm.

Récapitulatif de la journée
Température [°C] Vent [km/h] Ensoleillement4 [h] Precipitations totale5 [mm] Pression [Hpa]
Min1 Max.2 Moy.3 Max. Min Max.
1.4 16.6 3.2 13.0 0 h 0 min 0 1025.9 1029.7

1 Température minimale relevée entre 18:00 UTC la veille et 18:00 UTC le jour donné.

2 Température maximale relevée entre 06:00 UTC le jour donné et 06:00 UTC le lendemain.

3 Vent moyen de la journée basé sur les relevés horaires.

4 Ensoleillement en heures relevé entre 06:00 UTC la veille et 06:00 UTC le jour donné.

5 Précipitations totales tombées entre 06:00 UTC la jour donné et 06:00 UTC le lendemain.

Graphiques horaires